SWR5LD LSZH-LIRF
Flight info
| Callsign | SWR5LD |
|---|---|
| Flight time | 1h 4m |
| Altitude | 35000 |
| Route | VEBIT T53 GERSA DCT SOSON DCT ODINA DCT EKPAL DCT TINKU DCT XIBIL |
| Aircraft | A320/M-SDE3FGHIRWY/LB1 |
Departure
| Time | 2026-05-05 16:05 |
|---|---|
| Airport | Zürich Airport (LSZH) |
Arrival
| Time | 2026-05-05 17:10 |
|---|---|
| Airport | Rome–Fiumicino Leonardo da Vinci International Airport (LIRF) |
| Time | Latitude | Longitude | Altitude | Speed | Heading |
|---|---|---|---|---|---|
| 2026-05-05 15:33 | 47.45411 | 8.56002 | 1410 ft | 0 kts | 186° |
| 2026-05-05 15:33 | 47.45412 | 8.56002 | 1410 ft | 0 kts | 186° |
| 2026-05-05 15:57 | 47.45414 | 8.56002 | 1407 ft | 1 kts | 186° |
| 2026-05-05 15:57 | 47.45432 | 8.56004 | 1399 ft | 3 kts | 179° |
| 2026-05-05 15:57 | 47.45451 | 8.56002 | 1419 ft | 3 kts | 169° |
| 2026-05-05 15:58 | 47.45471 | 8.55995 | 1408 ft | 3 kts | 154° |
| 2026-05-05 15:58 | 47.45487 | 8.55980 | 1408 ft | 3 kts | 125° |
| 2026-05-05 15:58 | 47.45493 | 8.55962 | 1409 ft | 1 kts | 96° |
| 2026-05-05 15:58 | 47.45493 | 8.55961 | 1409 ft | 0 kts | 96° |
| 2026-05-05 16:00 | 47.45490 | 8.56003 | 1407 ft | 10 kts | 95° |
| 2026-05-05 16:01 | 47.45486 | 8.56068 | 1410 ft | 5 kts | 95° |
| 2026-05-05 16:01 | 47.45483 | 8.56116 | 1407 ft | 7 kts | 94° |
| 2026-05-05 16:01 | 47.45486 | 8.56206 | 1408 ft | 8 kts | 78° |
| 2026-05-05 16:01 | 47.45516 | 8.56281 | 1412 ft | 10 kts | 50° |
| 2026-05-05 16:02 | 47.45570 | 8.56376 | 1413 ft | 15 kts | 50° |
| 2026-05-05 16:02 | 47.45593 | 8.56516 | 1415 ft | 13 kts | 94° |
| 2026-05-05 16:02 | 47.45585 | 8.56627 | 1417 ft | 10 kts | 96° |
| 2026-05-05 16:02 | 47.45576 | 8.56745 | 1419 ft | 15 kts | 97° |
| 2026-05-05 16:03 | 47.45566 | 8.56875 | 1420 ft | 11 kts | 96° |
| 2026-05-05 16:03 | 47.45567 | 8.56975 | 1421 ft | 8 kts | 69° |
| 2026-05-05 16:03 | 47.45593 | 8.57010 | 1423 ft | 1 kts | 27° |
| 2026-05-05 16:03 | 47.45603 | 8.57017 | 1424 ft | 5 kts | 24° |
| 2026-05-05 16:04 | 47.45649 | 8.57025 | 1425 ft | 7 kts | 356° |
| 2026-05-05 16:04 | 47.45664 | 8.56989 | 1424 ft | 0 kts | 277° |
| 2026-05-05 16:05 | 47.45672 | 8.56888 | 1423 ft | 35 kts | 276° |
| 2026-05-05 16:05 | 47.45723 | 8.56167 | 1412 ft | 104 kts | 276° |
| 2026-05-05 16:05 | 47.45816 | 8.54814 | 1445 ft | 151 kts | 276° |
| 2026-05-05 16:05 | 47.45934 | 8.53284 | 2059 ft | 150 kts | 276° |
| 2026-05-05 16:06 | 47.46052 | 8.51730 | 2653 ft | 155 kts | 275° |
| 2026-05-05 16:06 | 47.46171 | 8.50088 | 3187 ft | 162 kts | 275° |
| 2026-05-05 16:06 | 47.46267 | 8.48438 | 3740 ft | 163 kts | 263° |
| 2026-05-05 16:06 | 47.45783 | 8.46949 | 4267 ft | 165 kts | 222° |
| 2026-05-05 16:07 | 47.44744 | 8.46187 | 4703 ft | 178 kts | 198° |
| 2026-05-05 16:07 | 47.43584 | 8.45322 | 4907 ft | 197 kts | 226° |
| 2026-05-05 16:07 | 47.42691 | 8.43619 | 5076 ft | 223 kts | 237° |
| 2026-05-05 16:07 | 47.41832 | 8.41563 | 5398 ft | 248 kts | 238° |
| 2026-05-05 16:08 | 47.40914 | 8.39311 | 5985 ft | 260 kts | 237° |
| 2026-05-05 16:08 | 47.39755 | 8.37284 | 6723 ft | 265 kts | 217° |
| 2026-05-05 16:08 | 47.38070 | 8.36110 | 7523 ft | 269 kts | 192° |
| 2026-05-05 16:08 | 47.36210 | 8.36171 | 8350 ft | 276 kts | 166° |
| 2026-05-05 16:09 | 47.34444 | 8.37362 | 9157 ft | 282 kts | 154° |
| 2026-05-05 16:09 | 47.32716 | 8.38764 | 9959 ft | 285 kts | 154° |
| 2026-05-05 16:09 | 47.30938 | 8.40215 | 10384 ft | 302 kts | 154° |
| 2026-05-05 16:09 | 47.29023 | 8.41769 | 10589 ft | 325 kts | 154° |
| 2026-05-05 16:10 | 47.27018 | 8.43388 | 11036 ft | 337 kts | 154° |
| 2026-05-05 16:10 | 47.24936 | 8.45069 | 11714 ft | 343 kts | 154° |
| 2026-05-05 16:10 | 47.22817 | 8.46729 | 12412 ft | 346 kts | 156° |
| 2026-05-05 16:10 | 47.20656 | 8.48349 | 13117 ft | 349 kts | 157° |
| 2026-05-05 16:11 | 47.18474 | 8.49950 | 13796 ft | 353 kts | 158° |
| 2026-05-05 16:11 | 47.11337 | 8.52121 | 15629 ft | 354 kts | 178° |
| 2026-05-05 16:12 | 47.08865 | 8.52473 | 16264 ft | 357 kts | 177° |
| 2026-05-05 16:12 | 47.03899 | 8.53198 | 17469 ft | 363 kts | 177° |
| 2026-05-05 16:13 | 46.96280 | 8.54310 | 19202 ft | 369 kts | 177° |
| 2026-05-05 16:13 | 46.93725 | 8.54680 | 19711 ft | 372 kts | 177° |
| 2026-05-05 16:13 | 46.91145 | 8.55055 | 20274 ft | 374 kts | 176° |
| 2026-05-05 16:14 | 46.86791 | 8.55683 | 21157 ft | 377 kts | 177° |
| 2026-05-05 16:14 | 46.81554 | 8.56432 | 22156 ft | 382 kts | 178° |
| 2026-05-05 16:15 | 46.76220 | 8.57190 | 22992 ft | 386 kts | 178° |
| 2026-05-05 16:15 | 46.70867 | 8.57955 | 23883 ft | 391 kts | 178° |
| 2026-05-05 16:16 | 46.65423 | 8.58739 | 24645 ft | 394 kts | 178° |
| 2026-05-05 16:16 | 46.59949 | 8.59518 | 25498 ft | 396 kts | 180° |
| 2026-05-05 16:17 | 46.54444 | 8.60291 | 26265 ft | 400 kts | 180° |
| 2026-05-05 16:17 | 46.51659 | 8.60688 | 26616 ft | 401 kts | 180° |
| 2026-05-05 16:18 | 46.46104 | 8.61481 | 27237 ft | 405 kts | 180° |
| 2026-05-05 16:18 | 46.43280 | 8.61881 | 27551 ft | 407 kts | 180° |
| 2026-05-05 16:18 | 46.37613 | 8.62681 | 28195 ft | 410 kts | 180° |
| 2026-05-05 16:19 | 46.34761 | 8.63077 | 28507 ft | 412 kts | 180° |
| 2026-05-05 16:19 | 46.31920 | 8.63472 | 28826 ft | 414 kts | 181° |
| 2026-05-05 16:19 | 46.26145 | 8.64280 | 29516 ft | 418 kts | 181° |
| 2026-05-05 16:20 | 46.20334 | 8.65102 | 30144 ft | 419 kts | 182° |
| 2026-05-05 16:20 | 46.14541 | 8.65920 | 30532 ft | 422 kts | 180° |
| 2026-05-05 16:21 | 46.08778 | 8.68332 | 30974 ft | 441 kts | 161° |
| 2026-05-05 16:22 | 46.00946 | 8.75562 | 31690 ft | 448 kts | 154° |
| 2026-05-05 16:22 | 45.95751 | 8.80517 | 32235 ft | 447 kts | 154° |
| 2026-05-05 16:23 | 45.90576 | 8.85436 | 32857 ft | 445 kts | 155° |
| 2026-05-05 16:23 | 45.88023 | 8.87855 | 33163 ft | 443 kts | 155° |
| 2026-05-05 16:23 | 45.82855 | 8.92732 | 33733 ft | 442 kts | 155° |
| 2026-05-05 16:24 | 45.80317 | 8.95121 | 34004 ft | 441 kts | 155° |
| 2026-05-05 16:24 | 45.77752 | 8.97539 | 34241 ft | 440 kts | 155° |
| 2026-05-05 16:24 | 45.72615 | 9.02377 | 34670 ft | 440 kts | 154° |
| 2026-05-05 16:25 | 45.70083 | 9.04760 | 34812 ft | 441 kts | 154° |
| 2026-05-05 16:25 | 45.64926 | 9.09607 | 34988 ft | 446 kts | 153° |
| 2026-05-05 16:25 | 45.62316 | 9.12049 | 34983 ft | 450 kts | 153° |
| 2026-05-05 16:26 | 45.51751 | 9.21948 | 34975 ft | 458 kts | 154° |
| 2026-05-05 16:27 | 45.46398 | 9.26930 | 34975 ft | 458 kts | 154° |
| 2026-05-05 16:27 | 45.41045 | 9.31901 | 34978 ft | 458 kts | 154° |
| 2026-05-05 16:28 | 45.35732 | 9.36829 | 34940 ft | 458 kts | 154° |
| 2026-05-05 16:28 | 45.30389 | 9.41768 | 35017 ft | 460 kts | 154° |
| 2026-05-05 16:29 | 45.25004 | 9.46742 | 34992 ft | 461 kts | 154° |
| 2026-05-05 16:29 | 45.19648 | 9.51672 | 34964 ft | 461 kts | 154° |
| 2026-05-05 16:30 | 45.14241 | 9.56639 | 34954 ft | 462 kts | 155° |
| 2026-05-05 16:30 | 45.08869 | 9.61566 | 34954 ft | 463 kts | 155° |
| 2026-05-05 16:31 | 45.03441 | 9.66518 | 34934 ft | 464 kts | 155° |
| 2026-05-05 16:31 | 44.98021 | 9.71476 | 34948 ft | 466 kts | 155° |
| 2026-05-05 16:32 | 44.92549 | 9.76470 | 34943 ft | 467 kts | 155° |
| 2026-05-05 16:32 | 44.87111 | 9.81417 | 34956 ft | 468 kts | 155° |
| 2026-05-05 16:33 | 44.81604 | 9.86398 | 34961 ft | 468 kts | 155° |
| 2026-05-05 16:33 | 44.76140 | 9.91331 | 34957 ft | 469 kts | 155° |
| 2026-05-05 16:34 | 44.70630 | 9.96303 | 34985 ft | 468 kts | 155° |
| 2026-05-05 16:34 | 44.65147 | 10.01249 | 35000 ft | 467 kts | 155° |
| 2026-05-05 16:35 | 44.59703 | 10.06151 | 35009 ft | 465 kts | 155° |
| 2026-05-05 16:35 | 44.54292 | 10.11002 | 35005 ft | 463 kts | 156° |
| 2026-05-05 16:36 | 44.48845 | 10.15774 | 35015 ft | 456 kts | 161° |
| 2026-05-05 16:36 | 44.43077 | 10.19085 | 35013 ft | 446 kts | 168° |
| 2026-05-05 16:37 | 44.37265 | 10.22156 | 34985 ft | 446 kts | 168° |
| 2026-05-05 16:37 | 44.31455 | 10.25228 | 34985 ft | 446 kts | 168° |
| 2026-05-05 16:38 | 44.25669 | 10.28286 | 34991 ft | 447 kts | 168° |
| 2026-05-05 16:38 | 44.19819 | 10.31355 | 35015 ft | 447 kts | 168° |
| 2026-05-05 16:39 | 44.14023 | 10.34383 | 34984 ft | 447 kts | 168° |
| 2026-05-05 16:39 | 44.08212 | 10.37440 | 34997 ft | 447 kts | 168° |
| 2026-05-05 16:40 | 44.02400 | 10.40498 | 35044 ft | 445 kts | 168° |
| 2026-05-05 16:40 | 43.96617 | 10.43531 | 35044 ft | 443 kts | 168° |
| 2026-05-05 16:41 | 43.90883 | 10.46505 | 34715 ft | 439 kts | 168° |
| 2026-05-05 16:41 | 43.88018 | 10.47993 | 34465 ft | 438 kts | 168° |
| 2026-05-05 16:41 | 43.85156 | 10.49481 | 34225 ft | 438 kts | 168° |
| 2026-05-05 16:42 | 43.82288 | 10.50968 | 33980 ft | 438 kts | 168° |
| 2026-05-05 16:42 | 43.79470 | 10.52428 | 33701 ft | 438 kts | 168° |
| 2026-05-05 16:42 | 43.76636 | 10.54040 | 33430 ft | 445 kts | 162° |
| 2026-05-05 16:42 | 43.73928 | 10.56269 | 33161 ft | 455 kts | 154° |
| 2026-05-05 16:43 | 43.71299 | 10.58756 | 32783 ft | 457 kts | 154° |
| 2026-05-05 16:43 | 43.68674 | 10.61242 | 32257 ft | 455 kts | 154° |
| 2026-05-05 16:43 | 43.66098 | 10.63677 | 31749 ft | 452 kts | 154° |
| 2026-05-05 16:43 | 43.63500 | 10.66124 | 31248 ft | 456 kts | 154° |
| 2026-05-05 16:44 | 43.60829 | 10.68613 | 30757 ft | 466 kts | 154° |
| 2026-05-05 16:44 | 43.58106 | 10.71141 | 30263 ft | 475 kts | 153° |
| 2026-05-05 16:44 | 43.55378 | 10.73682 | 29741 ft | 477 kts | 153° |
| 2026-05-05 16:44 | 43.52641 | 10.76243 | 29182 ft | 474 kts | 153° |
| 2026-05-05 16:45 | 43.49921 | 10.78794 | 28622 ft | 470 kts | 153° |
| 2026-05-05 16:45 | 43.47234 | 10.81314 | 28085 ft | 465 kts | 152° |
| 2026-05-05 16:45 | 43.44567 | 10.83812 | 27560 ft | 460 kts | 152° |
| 2026-05-05 16:45 | 43.41931 | 10.86272 | 27040 ft | 456 kts | 152° |
| 2026-05-05 16:46 | 43.39310 | 10.88699 | 26535 ft | 451 kts | 152° |
| 2026-05-05 16:46 | 43.36734 | 10.91078 | 26040 ft | 447 kts | 152° |
| 2026-05-05 16:46 | 43.34162 | 10.93455 | 25551 ft | 443 kts | 152° |
| 2026-05-05 16:46 | 43.31617 | 10.95805 | 25069 ft | 439 kts | 152° |
| 2026-05-05 16:47 | 43.29089 | 10.98134 | 24578 ft | 435 kts | 151° |
| 2026-05-05 16:47 | 43.26582 | 11.00445 | 24121 ft | 431 kts | 151° |
| 2026-05-05 16:47 | 43.24104 | 11.02737 | 23664 ft | 427 kts | 150° |
| 2026-05-05 16:47 | 43.21674 | 11.04984 | 23140 ft | 424 kts | 150° |
| 2026-05-05 16:48 | 43.19235 | 11.07230 | 22601 ft | 420 kts | 150° |
| 2026-05-05 16:48 | 43.16815 | 11.09454 | 22075 ft | 417 kts | 150° |
| 2026-05-05 16:48 | 43.14415 | 11.11656 | 21554 ft | 413 kts | 150° |
| 2026-05-05 16:48 | 43.12033 | 11.13842 | 21049 ft | 410 kts | 150° |
| 2026-05-05 16:49 | 43.09666 | 11.16020 | 20541 ft | 407 kts | 150° |
| 2026-05-05 16:49 | 43.07322 | 11.18176 | 20036 ft | 404 kts | 150° |
| 2026-05-05 16:49 | 43.04989 | 11.20315 | 19553 ft | 402 kts | 150° |
| 2026-05-05 16:49 | 43.02700 | 11.22404 | 19080 ft | 399 kts | 150° |
| 2026-05-05 16:50 | 43.00396 | 11.24503 | 18616 ft | 396 kts | 150° |
| 2026-05-05 16:50 | 42.98111 | 11.26590 | 18130 ft | 394 kts | 150° |
| 2026-05-05 16:50 | 42.95836 | 11.28666 | 17595 ft | 391 kts | 150° |
| 2026-05-05 16:50 | 42.93574 | 11.30727 | 17075 ft | 389 kts | 150° |
| 2026-05-05 16:51 | 42.91353 | 11.32748 | 16561 ft | 387 kts | 150° |
| 2026-05-05 16:51 | 42.89112 | 11.34787 | 16051 ft | 385 kts | 149° |
| 2026-05-05 16:51 | 42.86888 | 11.36812 | 15555 ft | 382 kts | 149° |
| 2026-05-05 16:51 | 42.84677 | 11.38823 | 15081 ft | 380 kts | 150° |
| 2026-05-05 16:52 | 42.82484 | 11.40817 | 14722 ft | 377 kts | 150° |
| 2026-05-05 16:52 | 42.80321 | 11.42784 | 14366 ft | 376 kts | 150° |
| 2026-05-05 16:52 | 42.78147 | 11.44754 | 14013 ft | 374 kts | 150° |
| 2026-05-05 16:52 | 42.75998 | 11.46696 | 13648 ft | 372 kts | 150° |
| 2026-05-05 16:53 | 42.73837 | 11.48641 | 13259 ft | 370 kts | 150° |
| 2026-05-05 16:53 | 42.71690 | 11.50574 | 12860 ft | 368 kts | 150° |
| 2026-05-05 16:53 | 42.69589 | 11.52468 | 12481 ft | 366 kts | 150° |
| 2026-05-05 16:53 | 42.67478 | 11.54375 | 12095 ft | 363 kts | 149° |
| 2026-05-05 16:54 | 42.65376 | 11.56274 | 11708 ft | 360 kts | 149° |
| 2026-05-05 16:54 | 42.63298 | 11.58146 | 11334 ft | 358 kts | 149° |
| 2026-05-05 16:54 | 42.61222 | 11.60011 | 10969 ft | 356 kts | 149° |
| 2026-05-05 16:54 | 42.59159 | 11.61864 | 10611 ft | 354 kts | 149° |
| 2026-05-05 16:55 | 42.57116 | 11.63699 | 10286 ft | 351 kts | 149° |
| 2026-05-05 16:55 | 42.55140 | 11.65479 | 10165 ft | 338 kts | 149° |
| 2026-05-05 16:55 | 42.53222 | 11.67213 | 10043 ft | 324 kts | 150° |
| 2026-05-05 16:55 | 42.51377 | 11.68877 | 9910 ft | 312 kts | 150° |
| 2026-05-05 16:56 | 42.49597 | 11.70470 | 9791 ft | 300 kts | 150° |
| 2026-05-05 16:56 | 42.47870 | 11.72015 | 9649 ft | 293 kts | 150° |
| 2026-05-05 16:56 | 42.46190 | 11.73508 | 9423 ft | 291 kts | 150° |
| 2026-05-05 16:56 | 42.44494 | 11.75018 | 9159 ft | 289 kts | 150° |
| 2026-05-05 16:57 | 42.42817 | 11.76513 | 8900 ft | 287 kts | 150° |
| 2026-05-05 16:57 | 42.41150 | 11.78001 | 8641 ft | 286 kts | 150° |
| 2026-05-05 16:57 | 42.39512 | 11.79462 | 8386 ft | 285 kts | 150° |
| 2026-05-05 16:57 | 42.37850 | 11.80942 | 8134 ft | 284 kts | 151° |
| 2026-05-05 16:58 | 42.36202 | 11.82408 | 7884 ft | 282 kts | 150° |
| 2026-05-05 16:58 | 42.34566 | 11.83868 | 7636 ft | 281 kts | 150° |
| 2026-05-05 16:58 | 42.32938 | 11.85319 | 7394 ft | 280 kts | 149° |
| 2026-05-05 16:58 | 42.31315 | 11.86763 | 7146 ft | 278 kts | 151° |
| 2026-05-05 16:59 | 42.29725 | 11.88178 | 6904 ft | 276 kts | 150° |
| 2026-05-05 16:59 | 42.28173 | 11.89726 | 6663 ft | 276 kts | 144° |
| 2026-05-05 16:59 | 42.26675 | 11.91348 | 6424 ft | 275 kts | 145° |
| 2026-05-05 16:59 | 42.25197 | 11.92991 | 6167 ft | 273 kts | 143° |
| 2026-05-05 17:00 | 42.24130 | 11.94183 | 5978 ft | 272 kts | 145° |
| 2026-05-05 17:00 | 42.23133 | 11.95298 | 5805 ft | 270 kts | 145° |
| 2026-05-05 17:00 | 42.22171 | 11.96372 | 5635 ft | 269 kts | 145° |
| 2026-05-05 17:00 | 42.20718 | 11.97988 | 5403 ft | 267 kts | 143° |
| 2026-05-05 17:01 | 42.19332 | 11.99526 | 5282 ft | 255 kts | 144° |
| 2026-05-05 17:01 | 42.17988 | 12.01015 | 5166 ft | 244 kts | 146° |
| 2026-05-05 17:01 | 42.16706 | 12.02436 | 5040 ft | 232 kts | 144° |
| 2026-05-05 17:01 | 42.15477 | 12.03794 | 4918 ft | 222 kts | 144° |
| 2026-05-05 17:02 | 42.14317 | 12.05074 | 4788 ft | 214 kts | 143° |
| 2026-05-05 17:02 | 42.13174 | 12.06331 | 4664 ft | 210 kts | 143° |
| 2026-05-05 17:02 | 42.12036 | 12.07576 | 4537 ft | 208 kts | 145° |
| 2026-05-05 17:02 | 42.10913 | 12.08804 | 4414 ft | 208 kts | 144° |
| 2026-05-05 17:03 | 42.09800 | 12.10020 | 4289 ft | 207 kts | 145° |
| 2026-05-05 17:03 | 42.08691 | 12.11234 | 4161 ft | 205 kts | 144° |
| 2026-05-05 17:03 | 42.07585 | 12.12445 | 4034 ft | 203 kts | 144° |
| 2026-05-05 17:03 | 42.06483 | 12.13654 | 3853 ft | 203 kts | 145° |
| 2026-05-05 17:04 | 42.05392 | 12.14851 | 3605 ft | 202 kts | 144° |
| 2026-05-05 17:04 | 42.04318 | 12.16030 | 3364 ft | 200 kts | 145° |
| 2026-05-05 17:04 | 42.03243 | 12.17211 | 3108 ft | 197 kts | 144° |
| 2026-05-05 17:04 | 42.02176 | 12.18380 | 2855 ft | 197 kts | 145° |
| 2026-05-05 17:05 | 42.01005 | 12.19274 | 2586 ft | 191 kts | 164° |
| 2026-05-05 17:05 | 41.99746 | 12.19787 | 2503 ft | 188 kts | 165° |
| 2026-05-05 17:05 | 41.98532 | 12.20293 | 2526 ft | 177 kts | 163° |
| 2026-05-05 17:05 | 41.97395 | 12.20771 | 2520 ft | 166 kts | 163° |
| 2026-05-05 17:06 | 41.96318 | 12.21226 | 2400 ft | 162 kts | 163° |
| 2026-05-05 17:06 | 41.95246 | 12.21678 | 2216 ft | 161 kts | 164° |
| 2026-05-05 17:06 | 41.94177 | 12.22127 | 2012 ft | 159 kts | 164° |
| 2026-05-05 17:06 | 41.93138 | 12.22564 | 1808 ft | 157 kts | 163° |
| 2026-05-05 17:07 | 41.92094 | 12.23003 | 1593 ft | 156 kts | 162° |
| 2026-05-05 17:07 | 41.91064 | 12.23435 | 1379 ft | 152 kts | 162° |
| 2026-05-05 17:07 | 41.90099 | 12.23841 | 1200 ft | 139 kts | 164° |
| 2026-05-05 17:07 | 41.89199 | 12.24218 | 1009 ft | 135 kts | 164° |
| 2026-05-05 17:08 | 41.88290 | 12.24597 | 834 ft | 139 kts | 162° |
| 2026-05-05 17:08 | 41.87373 | 12.24978 | 657 ft | 135 kts | 161° |
| 2026-05-05 17:08 | 41.86492 | 12.25361 | 472 ft | 133 kts | 161° |
| 2026-05-05 17:08 | 41.85617 | 12.25728 | 278 ft | 133 kts | 162° |
| 2026-05-05 17:09 | 41.84734 | 12.26093 | 102 ft | 132 kts | 160° |
| 2026-05-05 17:09 | 41.83881 | 12.26452 | 20 ft | 116 kts | 161° |
| 2026-05-05 17:09 | 41.83265 | 12.26710 | 11 ft | 75 kts | 162° |
| 2026-05-05 17:09 | 41.82834 | 12.26892 | 13 ft | 56 kts | 162° |
| 2026-05-05 17:10 | 41.82504 | 12.27029 | 11 ft | 44 kts | 163° |
| 2026-05-05 17:10 | 41.82234 | 12.27128 | 10 ft | 36 kts | 171° |
| 2026-05-05 17:10 | 41.82000 | 12.27124 | 11 ft | 31 kts | 192° |
| 2026-05-05 17:10 | 41.81799 | 12.27058 | 11 ft | 29 kts | 192° |
| 2026-05-05 17:11 | 41.81603 | 12.27080 | 13 ft | 28 kts | 162° |
| 2026-05-05 17:11 | 41.81420 | 12.27156 | 13 ft | 27 kts | 162° |
| 2026-05-05 17:11 | 41.81241 | 12.27232 | 12 ft | 26 kts | 162° |
| 2026-05-05 17:11 | 41.81070 | 12.27305 | 12 ft | 26 kts | 163° |
| 2026-05-05 17:12 | 41.80893 | 12.27348 | 12 ft | 26 kts | 187° |
| 2026-05-05 17:12 | 41.80717 | 12.27304 | 12 ft | 26 kts | 198° |
| 2026-05-05 17:12 | 41.80624 | 12.27112 | 13 ft | 26 kts | 250° |
| 2026-05-05 17:12 | 41.80559 | 12.26881 | 13 ft | 27 kts | 249° |
| 2026-05-05 17:13 | 41.80496 | 12.26648 | 16 ft | 23 kts | 249° |
| 2026-05-05 17:13 | 41.80440 | 12.26449 | 17 ft | 19 kts | 251° |
| 2026-05-05 17:13 | 41.80412 | 12.26344 | 16 ft | 7 kts | 250° |
| 2026-05-05 17:13 | 41.80410 | 12.26335 | 16 ft | 0 kts | 249° |
| 2026-05-05 17:15 | 41.80398 | 12.26340 | 15 ft | 6 kts | 159° |
| 2026-05-05 17:15 | 41.80330 | 12.26378 | 14 ft | 13 kts | 157° |
| 2026-05-05 17:15 | 41.80240 | 12.26411 | 14 ft | 14 kts | 180° |
| 2026-05-05 17:15 | 41.80143 | 12.26363 | 15 ft | 16 kts | 206° |
| 2026-05-05 17:16 | 41.80038 | 12.26297 | 14 ft | 18 kts | 205° |
| 2026-05-05 17:16 | 41.79924 | 12.26227 | 14 ft | 16 kts | 206° |
| 2026-05-05 17:16 | 41.79882 | 12.26201 | 14 ft | 0 kts | 205° |
| 2026-05-05 17:17 | 41.79872 | 12.26195 | 15 ft | 7 kts | 205° |
| 2026-05-05 17:17 | 41.79795 | 12.26146 | 14 ft | 14 kts | 208° |
| 2026-05-05 17:18 | 41.79775 | 12.26033 | 15 ft | 13 kts | 297° |
| 2026-05-05 17:18 | 41.79812 | 12.25937 | 14 ft | 8 kts | 296° |
| 2026-05-05 17:18 | 41.79814 | 12.25930 | 16 ft | 0 kts | 295° |
| 2026-05-05 17:20 | 41.79814 | 12.25929 | 16 ft | 1 kts | 295° |
| 2026-05-05 17:20 | 41.79827 | 12.25892 | 16 ft | 8 kts | 295° |
| 2026-05-05 17:20 | 41.79849 | 12.25827 | 14 ft | 7 kts | 290° |
| 2026-05-05 17:20 | 41.79828 | 12.25785 | 14 ft | 5 kts | 212° |
| 2026-05-05 17:21 | 41.79792 | 12.25763 | 14 ft | 6 kts | 205° |
| 2026-05-05 17:21 | 41.79760 | 12.25742 | 15 ft | 5 kts | 205° |
| 2026-05-05 17:21 | 41.79721 | 12.25718 | 15 ft | 5 kts | 205° |
| 2026-05-05 17:22 | 41.79719 | 12.25662 | 15 ft | 5 kts | 297° |
| 2026-05-05 17:22 | 41.79726 | 12.25642 | 14 ft | 1 kts | 296° |
| 2026-05-05 17:22 | 41.79727 | 12.25639 | 14 ft | 0 kts | 295° |